createdAt,value
2023-03-16T00:02:18.834Z,79.23
2023-03-16T00:04:47.411Z,79.25
2023-03-16T00:07:14.743Z,79.12
2023-03-16T00:09:41.973Z,79.44
2023-03-16T00:12:15.598Z,78.23
2023-03-16T00:14:43.973Z,78.41
2023-03-16T00:17:18.829Z,79.93
2023-03-16T00:19:55.871Z,79.35
2023-03-16T00:22:27.433Z,79.85
2023-03-16T00:24:54.922Z,80.36
2023-03-16T00:27:22.969Z,80.07
2023-03-16T00:29:55.807Z,80.05
2023-03-16T00:32:28.619Z,79.00
2023-03-16T00:34:55.166Z,79.13
2023-03-16T00:37:23.858Z,79.14
2023-03-16T00:39:51.402Z,78.65
2023-03-16T00:42:20.188Z,78.89
2023-03-16T00:44:46.933Z,78.42
2023-03-16T00:47:14.312Z,78.48
2023-03-16T00:49:43.605Z,78.95
2023-03-16T00:52:15.954Z,78.55
2023-03-16T00:54:44.611Z,78.65
2023-03-16T00:57:12.696Z,79.03
2023-03-16T00:59:39.921Z,79.16
2023-03-16T01:02:07.890Z,78.59
2023-03-16T01:04:35.895Z,78.54
2023-03-16T01:07:04.810Z,78.00
2023-03-16T01:09:36.810Z,78.63
2023-03-16T01:12:08.428Z,79.11
2023-03-16T01:14:36.203Z,79.25
2023-03-16T01:17:04.940Z,78.31
2023-03-16T01:19:35.642Z,78.62
2023-03-16T01:22:04.616Z,78.91
2023-03-16T01:24:32.422Z,78.89
2023-03-16T01:26:59.645Z,78.85
2023-03-16T01:29:26.230Z,78.50
2023-03-16T01:31:55.778Z,78.83
2023-03-16T01:34:23.030Z,78.61
2023-03-16T01:36:51.000Z,78.60
2023-03-16T01:39:25.666Z,78.38
2023-03-16T01:41:52.093Z,78.62
2023-03-16T01:44:22.432Z,78.14
2023-03-16T01:46:48.990Z,79.01
2023-03-16T01:49:25.114Z,79.28
2023-03-16T01:52:03.781Z,78.43
2023-03-16T01:55:09.282Z,79.00
2023-03-16T01:57:42.554Z,78.50
2023-03-16T02:00:24.330Z,79.27
2023-03-16T02:03:14.079Z,78.63
2023-03-16T02:06:06.533Z,78.75
2023-03-16T02:08:36.883Z,78.13
2023-03-16T02:11:04.664Z,78.56
2023-03-16T02:13:45.776Z,77.65
2023-03-16T02:16:19.230Z,78.27
2023-03-16T02:18:51.234Z,78.32
2023-03-16T02:21:46.644Z,78.69
2023-03-16T02:24:13.580Z,79.03
2023-03-16T02:26:47.499Z,79.53
2023-03-16T02:29:29.913Z,79.32
2023-03-16T02:31:58.188Z,79.24
2023-03-16T02:34:26.270Z,78.65
2023-03-16T02:36:53.801Z,79.27
2023-03-16T02:39:24.143Z,79.48
2023-03-16T02:41:50.967Z,79.63
2023-03-16T02:44:27.580Z,80.06
2023-03-16T02:47:03.614Z,79.46
2023-03-16T02:49:38.565Z,79.59
2023-03-16T02:52:06.560Z,79.86
2023-03-16T02:54:33.127Z,78.87
2023-03-16T02:56:59.709Z,79.64
2023-03-16T02:59:27.876Z,79.03
2023-03-16T03:01:54.388Z,80.47
2023-03-16T03:04:23.345Z,80.77
2023-03-16T03:06:51.350Z,81.06
2023-03-16T03:09:18.867Z,81.41
2023-03-16T03:11:46.998Z,82.03
2023-03-16T03:14:16.662Z,81.08
2023-03-16T03:16:46.769Z,80.32
2023-03-16T03:19:15.130Z,80.66
2023-03-16T03:21:41.906Z,79.78
2023-03-16T03:24:09.694Z,79.93
2023-03-16T03:26:38.130Z,79.92
2023-03-16T03:29:07.138Z,79.39
2023-03-16T03:31:35.044Z,80.03
2023-03-16T03:34:06.403Z,79.46
2023-03-16T03:36:35.548Z,79.26
2023-03-16T03:39:05.943Z,79.38
2023-03-16T03:41:34.383Z,79.09
2023-03-16T03:44:04.282Z,79.22
2023-03-16T03:46:31.326Z,79.02
2023-03-16T03:49:03.528Z,79.37
2023-03-16T03:51:32.766Z,79.67
2023-03-16T03:54:03.346Z,79.50
2023-03-16T03:56:40.738Z,80.98
2023-03-16T03:59:11.536Z,80.84
2023-03-16T04:01:58.397Z,80.96
2023-03-16T04:04:30.894Z,80.14
2023-03-16T04:06:57.359Z,79.83
2023-03-16T04:09:23.936Z,80.11
2023-03-16T04:11:50.876Z,79.40
2023-03-16T04:14:17.342Z,79.09
2023-03-16T04:16:47.068Z,79.76
2023-03-16T04:19:14.343Z,79.83
2023-03-16T04:21:41.132Z,81.22
2023-03-16T04:24:07.716Z,80.70
2023-03-16T04:26:36.001Z,81.38
2023-03-16T04:29:03.937Z,82.37
2023-03-16T04:31:32.232Z,81.85
2023-03-16T04:33:59.126Z,82.17
2023-03-16T04:36:25.625Z,81.69
2023-03-16T04:38:53.122Z,81.73
2023-03-16T04:41:20.142Z,80.99
2023-03-16T04:43:57.627Z,80.62
2023-03-16T04:46:27.305Z,81.03
2023-03-16T04:48:58.177Z,80.91
2023-03-16T04:51:26.784Z,80.96
2023-03-16T04:54:08.916Z,81.26
2023-03-16T04:56:41.413Z,82.81
2023-03-16T04:59:15.285Z,83.62
2023-03-16T05:01:48.434Z,83.99
2023-03-16T05:04:19.534Z,84.49
2023-03-16T05:06:47.221Z,84.54
2023-03-16T05:09:14.535Z,84.30
2023-03-16T05:11:40.977Z,84.47
2023-03-16T05:14:11.124Z,83.64
2023-03-16T05:16:52.232Z,83.88
2023-03-16T05:19:19.092Z,83.59
2023-03-16T05:21:46.078Z,83.73
2023-03-16T05:24:12.589Z,83.86
2023-03-16T05:26:39.472Z,84.39
2023-03-16T05:29:09.903Z,85.30
2023-03-16T05:31:37.985Z,85.20
2023-03-16T05:34:10.361Z,85.68
2023-03-16T05:36:36.925Z,85.73
2023-03-16T05:39:11.854Z,85.30
2023-03-16T05:41:42.463Z,85.15
2023-03-16T05:44:17.834Z,84.34
2023-03-16T05:47:04.042Z,83.94
2023-03-16T05:49:32.792Z,83.97
2023-03-16T05:52:02.950Z,83.68
2023-03-16T05:54:31.403Z,82.72
2023-03-16T05:56:57.927Z,82.38
2023-03-16T05:59:24.722Z,82.42
2023-03-16T06:01:54.645Z,82.41
2023-03-16T06:04:21.857Z,82.96
2023-03-16T06:06:48.787Z,83.48
2023-03-16T06:09:26.374Z,83.27
2023-03-16T06:11:53.316Z,82.82
2023-03-16T06:14:20.256Z,83.05
2023-03-16T06:16:47.194Z,81.83
2023-03-16T06:19:15.084Z,82.09
2023-03-16T06:21:42.326Z,81.63
2023-03-16T06:24:10.458Z,80.47
2023-03-16T06:26:38.193Z,79.18
2023-03-16T06:29:07.384Z,77.22
2023-03-16T06:31:36.469Z,76.42
2023-03-16T06:34:05.943Z,76.37
2023-03-16T06:36:32.545Z,77.14
2023-03-16T06:39:01.321Z,76.42
2023-03-16T06:41:32.707Z,76.30
2023-03-16T06:43:59.234Z,76.64
2023-03-16T06:46:27.742Z,77.29
2023-03-16T06:48:55.415Z,77.14
2023-03-16T06:51:21.897Z,76.76
2023-03-16T06:53:49.989Z,76.57
2023-03-16T06:56:17.054Z,75.68
2023-03-16T06:58:45.429Z,74.46
2023-03-16T07:01:12.497Z,72.72
2023-03-16T07:03:39.320Z,71.28
2023-03-16T07:06:14.852Z,69.52
2023-03-16T07:08:42.917Z,68.64
2023-03-16T07:11:10.622Z,67.82
2023-03-16T07:13:37.324Z,66.73
2023-03-16T07:16:05.035Z,64.54
2023-03-16T07:18:32.267Z,64.31
2023-03-16T07:20:59.339Z,63.41
2023-03-16T07:23:26.976Z,61.90
2023-03-16T07:26:00.684Z,61.66
2023-03-16T07:28:28.567Z,61.64
2023-03-16T07:31:03.933Z,60.99
2023-03-16T07:33:37.205Z,59.74
2023-03-16T07:36:06.634Z,58.64
2023-03-16T07:38:38.993Z,58.48
2023-03-16T07:41:05.516Z,57.90
2023-03-16T07:43:34.445Z,57.13
2023-03-16T07:46:01.994Z,56.53
2023-03-16T07:48:29.307Z,56.14
2023-03-16T07:51:00.438Z,56.27
2023-03-16T07:53:28.694Z,54.86
2023-03-16T07:56:12.495Z,54.91
2023-03-16T07:58:41.857Z,55.76
2023-03-16T08:01:10.820Z,56.78
2023-03-16T08:03:38.177Z,56.47
2023-03-16T08:06:06.038Z,55.67
2023-03-16T08:08:32.898Z,55.44
2023-03-16T08:10:59.483Z,57.23
2023-03-16T08:13:36.970Z,55.54
2023-03-16T08:16:05.380Z,55.93
2023-03-16T08:18:38.239Z,55.97
2023-03-16T08:21:06.636Z,56.99
2023-03-16T08:23:33.818Z,56.47
2023-03-16T08:26:01.139Z,57.12
2023-03-16T08:28:28.007Z,56.28
2023-03-16T08:30:58.332Z,55.72
2023-03-16T08:33:42.927Z,55.38
2023-03-16T08:36:13.285Z,55.45
2023-03-16T08:38:44.129Z,55.59
2023-03-16T08:41:12.475Z,55.07
2023-03-16T08:43:40.212Z,55.45
2023-03-16T08:46:07.273Z,55.23
2023-03-16T08:48:44.987Z,53.79
2023-03-16T08:51:11.968Z,54.55
2023-03-16T08:53:38.440Z,54.06
2023-03-16T08:56:08.199Z,54.35
2023-03-16T08:58:35.934Z,53.63
2023-03-16T09:01:05.666Z,54.21
2023-03-16T09:03:33.385Z,53.96
2023-03-16T09:06:06.693Z,54.11
2023-03-16T09:08:34.021Z,54.52
2023-03-16T09:11:08.609Z,53.27
2023-03-16T09:13:36.213Z,52.90
2023-03-16T09:16:02.998Z,51.67
2023-03-16T09:18:30.165Z,51.37
2023-03-16T09:21:01.319Z,50.51
2023-03-16T09:23:29.280Z,50.23
2023-03-16T09:26:01.012Z,49.52
2023-03-16T09:28:28.897Z,50.41
2023-03-16T09:30:56.992Z,49.47
2023-03-16T09:33:25.377Z,49.56
2023-03-16T09:35:52.696Z,48.97
2023-03-16T09:38:19.584Z,50.08
2023-03-16T09:40:48.849Z,50.66
2023-03-16T09:43:39.869Z,50.22
2023-03-16T09:46:30.022Z,49.84
2023-03-16T09:48:58.016Z,50.10
2023-03-16T09:51:43.346Z,48.94
2023-03-16T09:54:22.728Z,47.37
2023-03-16T09:56:50.291Z,48.96
2023-03-16T09:59:18.397Z,46.27
2023-03-16T10:02:05.978Z,47.09
2023-03-16T10:04:47.070Z,47.59
2023-03-16T10:07:34.385Z,47.35
2023-03-16T10:10:11.206Z,46.52
2023-03-16T10:12:43.398Z,45.75
2023-03-16T10:15:21.035Z,46.20
2023-03-16T10:17:56.458Z,46.23
2023-03-16T10:20:24.636Z,46.37
2023-03-16T10:22:52.621Z,44.91
2023-03-16T10:25:32.690Z,44.46
2023-03-16T10:27:59.422Z,45.07
2023-03-16T10:30:33.038Z,45.65
2023-03-16T10:33:18.444Z,45.28
2023-03-16T10:35:58.197Z,45.10
2023-03-16T10:38:39.997Z,45.08
2023-03-16T10:41:31.774Z,43.84
2023-03-16T10:44:16.622Z,44.40
2023-03-16T10:46:58.970Z,44.21
2023-03-16T10:49:36.034Z,43.11
2023-03-16T10:52:13.505Z,42.92
2023-03-16T10:54:46.394Z,43.21
2023-03-16T10:57:24.880Z,43.71
2023-03-16T10:59:53.877Z,42.73
2023-03-16T11:02:26.929Z,42.89
2023-03-16T11:04:54.360Z,43.20
2023-03-16T11:07:24.950Z,43.11
2023-03-16T11:09:53.006Z,41.97
2023-03-16T11:12:30.121Z,42.36
2023-03-16T11:15:20.073Z,42.11
2023-03-16T11:17:53.520Z,42.67
2023-03-16T11:20:29.038Z,42.61
2023-03-16T11:22:56.104Z,42.43
2023-03-16T11:25:37.097Z,42.53
2023-03-16T11:28:12.011Z,42.04
2023-03-16T11:30:49.763Z,41.29
2023-03-16T11:33:16.421Z,40.61
2023-03-16T11:35:58.380Z,40.39
2023-03-16T11:38:42.003Z,41.12
2023-03-16T11:41:18.293Z,41.61
2023-03-16T11:43:50.527Z,40.52
2023-03-16T11:46:31.948Z,39.71
2023-03-16T11:49:32.701Z,39.75
2023-03-16T11:52:11.336Z,39.55
2023-03-16T11:55:07.449Z,40.48
2023-03-16T11:57:51.846Z,41.45
2023-03-16T12:00:47.769Z,39.50
2023-03-16T12:03:32.321Z,38.29
2023-03-16T12:06:22.187Z,39.03
2023-03-16T12:09:27.232Z,38.40
2023-03-16T12:12:00.121Z,38.99
2023-03-16T12:14:33.796Z,40.01
2023-03-16T12:17:09.543Z,39.27
2023-03-16T12:19:53.556Z,37.67
2023-03-16T12:22:24.452Z,40.38
2023-03-16T12:24:50.866Z,38.89
2023-03-16T12:27:24.784Z,38.11
2023-03-16T12:30:41.124Z,38.37
2023-03-16T12:33:19.408Z,38.94
2023-03-16T12:35:54.794Z,37.65
2023-03-16T12:38:36.718Z,39.13
2023-03-16T12:41:24.687Z,39.07
2023-03-16T12:44:04.124Z,38.81
2023-03-16T12:46:47.781Z,38.49
2023-03-16T12:49:15.149Z,38.58
2023-03-16T12:51:43.688Z,38.56
2023-03-16T12:54:25.287Z,39.27
2023-03-16T12:56:59.554Z,39.41
2023-03-16T12:59:40.137Z,38.85
2023-03-16T13:02:13.532Z,38.03
2023-03-16T13:04:42.762Z,37.78
2023-03-16T13:07:22.618Z,36.88
2023-03-16T13:09:57.164Z,35.69
2023-03-16T13:12:32.786Z,36.79
2023-03-16T13:14:59.932Z,37.22
2023-03-16T13:17:30.051Z,36.83
2023-03-16T13:20:01.532Z,36.43
2023-03-16T13:22:43.147Z,37.50
2023-03-16T13:25:22.433Z,38.40
2023-03-16T13:27:54.470Z,38.52
2023-03-16T13:30:28.746Z,37.92
2023-03-16T13:33:00.060Z,38.31
2023-03-16T13:35:29.318Z,38.19
2023-03-16T13:38:05.594Z,38.64
2023-03-16T13:40:32.828Z,39.29
2023-03-16T13:42:59.459Z,38.42
2023-03-16T13:45:34.212Z,38.08
2023-03-16T13:48:01.893Z,37.86
2023-03-16T13:50:32.989Z,38.05
2023-03-16T13:53:04.191Z,37.57
2023-03-16T13:55:36.988Z,37.94
2023-03-16T13:58:04.551Z,38.09
2023-03-16T14:00:34.919Z,39.30
2023-03-16T14:03:13.344Z,40.23
2023-03-16T14:05:40.794Z,41.08
2023-03-16T14:08:23.282Z,42.15
2023-03-16T14:10:51.486Z,43.23
2023-03-16T14:13:32.305Z,44.13
2023-03-16T14:16:06.456Z,44.10
2023-03-16T14:18:46.020Z,45.19
2023-03-16T14:21:19.755Z,45.50
2023-03-16T14:23:51.176Z,45.68
2023-03-16T14:26:19.674Z,45.60
2023-03-16T14:29:06.398Z,46.51
2023-03-16T14:31:38.644Z,46.73
2023-03-16T14:34:23.045Z,47.11
2023-03-16T14:36:49.488Z,47.01
2023-03-16T14:39:20.783Z,47.05
2023-03-16T14:41:53.478Z,47.07
2023-03-16T14:44:24.341Z,46.94
2023-03-16T14:46:54.112Z,46.98
2023-03-16T14:49:33.332Z,45.52
2023-03-16T14:52:15.357Z,46.42
2023-03-16T14:54:41.816Z,44.78
2023-03-16T14:57:16.692Z,45.52
2023-03-16T14:59:43.598Z,45.56
2023-03-16T15:02:17.082Z,45.66
2023-03-16T15:04:44.485Z,46.04
2023-03-16T15:07:25.202Z,44.72
2023-03-16T15:09:53.865Z,44.72
2023-03-16T15:12:21.690Z,45.43
2023-03-16T15:15:06.889Z,45.58
2023-03-16T15:17:33.613Z,45.27
2023-03-16T15:20:00.129Z,45.97
2023-03-16T15:22:34.013Z,46.57
2023-03-16T15:25:17.990Z,47.55
2023-03-16T15:27:44.466Z,47.58
2023-03-16T15:30:31.673Z,48.56
2023-03-16T15:32:58.317Z,48.52
2023-03-16T15:35:24.917Z,48.64
2023-03-16T15:37:51.418Z,49.03
2023-03-16T15:40:24.526Z,48.42
2023-03-16T15:42:51.539Z,48.96
2023-03-16T15:45:21.332Z,49.29
2023-03-16T15:47:49.722Z,49.39
2023-03-16T15:50:19.448Z,49.22
2023-03-16T15:52:49.532Z,48.84
2023-03-16T15:55:20.003Z,49.45
2023-03-16T15:57:48.863Z,49.51
2023-03-16T16:00:42.148Z,50.00
2023-03-16T16:03:11.674Z,49.71
2023-03-16T16:05:38.125Z,50.12
2023-03-16T16:08:04.862Z,50.00
2023-03-16T16:10:32.254Z,49.86
2023-03-16T16:12:59.066Z,49.93
2023-03-16T16:15:31.866Z,50.30
2023-03-16T16:18:19.734Z,50.52
2023-03-16T16:20:45.013Z,50.46
2023-03-16T16:23:11.462Z,50.39
2023-03-16T16:25:41.458Z,49.96
2023-03-16T16:28:17.535Z,50.47
2023-03-16T16:30:44.382Z,50.14
2023-03-16T16:33:31.291Z,50.11
2023-03-16T16:36:00.570Z,50.05
2023-03-16T16:38:27.257Z,49.95
2023-03-16T16:40:58.000Z,50.11
2023-03-16T16:43:46.535Z,50.08
2023-03-16T16:46:16.540Z,50.28
2023-03-16T16:48:46.482Z,50.33
2023-03-16T16:51:24.656Z,50.12
2023-03-16T16:53:52.892Z,50.18
2023-03-16T16:56:27.463Z,50.09
2023-03-16T16:58:55.892Z,50.42
2023-03-16T17:01:34.611Z,50.30
2023-03-16T17:04:02.832Z,50.49
2023-03-16T17:06:29.696Z,49.97
2023-03-16T17:08:56.149Z,50.26
2023-03-16T17:11:29.079Z,50.63
2023-03-16T17:13:58.130Z,51.09
2023-03-16T17:16:28.597Z,50.76
2023-03-16T17:18:55.444Z,51.25
2023-03-16T17:21:25.145Z,51.61
2023-03-16T17:23:55.086Z,51.67
2023-03-16T17:26:23.345Z,51.94
2023-03-16T17:28:54.786Z,52.17
2023-03-16T17:31:24.344Z,52.12
2023-03-16T17:33:52.459Z,52.56
2023-03-16T17:36:20.473Z,52.93
2023-03-16T17:38:47.532Z,52.81
2023-03-16T17:41:22.793Z,53.01
2023-03-16T17:43:51.211Z,53.58
2023-03-16T17:46:20.263Z,53.28
2023-03-16T17:48:47.975Z,53.47
2023-03-16T17:51:16.484Z,53.55
2023-03-16T17:53:43.881Z,53.49
2023-03-16T17:56:21.089Z,53.78
2023-03-16T17:58:51.229Z,53.74
2023-03-16T18:01:21.962Z,54.54
2023-03-16T18:03:48.497Z,54.09
2023-03-16T18:06:26.125Z,54.63
2023-03-16T18:08:53.024Z,54.41
2023-03-16T18:11:22.065Z,54.57
2023-03-16T18:13:50.722Z,54.23
2023-03-16T18:16:27.966Z,54.52
2023-03-16T18:18:59.045Z,55.10
2023-03-16T18:21:25.974Z,54.41
2023-03-16T18:23:53.688Z,55.02
2023-03-16T18:26:20.710Z,55.18
2023-03-16T18:28:48.209Z,55.63
2023-03-16T18:31:27.467Z,54.85
2023-03-16T18:34:00.586Z,54.95
2023-03-16T18:36:31.365Z,54.94
2023-03-16T18:39:00.885Z,54.57
2023-03-16T18:41:29.484Z,54.99
2023-03-16T18:43:58.688Z,54.78
2023-03-16T18:46:28.877Z,54.95
2023-03-16T18:48:58.101Z,55.66
2023-03-16T18:51:25.503Z,56.88
2023-03-16T18:53:53.348Z,57.81
2023-03-16T18:56:25.715Z,57.85
2023-03-16T18:58:53.103Z,56.88
2023-03-16T19:01:30.016Z,56.21
2023-03-16T19:03:58.858Z,55.90
2023-03-16T19:06:30.906Z,55.85
2023-03-16T19:09:19.075Z,56.34
2023-03-16T19:11:46.940Z,56.85
2023-03-16T19:14:23.892Z,56.61
2023-03-16T19:16:51.604Z,56.39
2023-03-16T19:19:22.602Z,55.97
2023-03-16T19:21:51.666Z,56.48
2023-03-16T19:24:24.131Z,56.79
2023-03-16T19:26:51.165Z,57.54
2023-03-16T19:29:22.256Z,58.18
2023-03-16T19:31:48.807Z,58.74
2023-03-16T19:34:17.791Z,58.51
2023-03-16T19:36:44.905Z,59.42
2023-03-16T19:39:13.486Z,58.42
2023-03-16T19:41:40.508Z,59.26
2023-03-16T19:44:19.574Z,59.92
2023-03-16T19:46:46.720Z,60.78
2023-03-16T19:49:21.732Z,61.08
2023-03-16T19:51:51.405Z,62.03
2023-03-16T19:54:31.414Z,60.96
2023-03-16T19:57:02.378Z,61.42
2023-03-16T19:59:32.611Z,60.97
2023-03-16T20:02:00.077Z,61.75
2023-03-16T20:04:27.622Z,61.32
2023-03-16T20:06:54.273Z,61.53
2023-03-16T20:09:22.128Z,61.79
2023-03-16T20:11:49.545Z,61.14
2023-03-16T20:14:25.536Z,61.33
2023-03-16T20:16:53.179Z,60.88
2023-03-16T20:19:22.203Z,61.40
2023-03-16T20:21:49.099Z,60.85
2023-03-16T20:24:17.369Z,60.74
2023-03-16T20:26:46.636Z,61.16
2023-03-16T20:29:28.933Z,61.13
2023-03-16T20:31:56.151Z,61.00
2023-03-16T20:34:28.439Z,60.69
2023-03-16T20:36:55.788Z,61.21
2023-03-16T20:39:22.618Z,61.73
2023-03-16T20:41:49.523Z,61.63
2023-03-16T20:44:19.467Z,61.95
2023-03-16T20:46:46.932Z,61.97
2023-03-16T20:49:22.464Z,61.63
2023-03-16T20:51:50.156Z,61.58
2023-03-16T20:54:17.663Z,61.15
2023-03-16T20:56:44.462Z,61.60
2023-03-16T20:59:18.751Z,62.61
2023-03-16T21:01:45.951Z,62.12
2023-03-16T21:04:27.505Z,62.17
2023-03-16T21:06:55.035Z,62.22
2023-03-16T21:09:22.124Z,62.34
2023-03-16T21:11:48.694Z,62.06
2023-03-16T21:14:18.120Z,62.90
2023-03-16T21:16:44.675Z,62.38
2023-03-16T21:19:16.155Z,62.33
2023-03-16T21:21:43.368Z,63.27
2023-03-16T21:24:09.832Z,63.54
2023-03-16T21:26:37.215Z,63.59
2023-03-16T21:29:08.148Z,62.76
2023-03-16T21:31:34.869Z,62.44
2023-03-16T21:34:01.835Z,61.93
2023-03-16T21:36:28.520Z,62.44
2023-03-16T21:38:57.022Z,62.13
2023-03-16T21:41:23.484Z,62.56
2023-03-16T21:43:50.153Z,62.20
2023-03-16T21:46:22.896Z,62.00
2023-03-16T21:48:55.107Z,62.43
2023-03-16T21:51:26.348Z,61.71
2023-03-16T21:53:53.448Z,62.55
2023-03-16T21:56:23.079Z,62.39
2023-03-16T21:58:50.418Z,62.35
2023-03-16T22:01:29.161Z,62.89
2023-03-16T22:03:58.243Z,64.63
2023-03-16T22:06:28.003Z,63.45
2023-03-16T22:08:55.263Z,64.10
2023-03-16T22:11:27.715Z,64.14
2023-03-16T22:13:55.485Z,63.96
2023-03-16T22:16:24.429Z,64.33
2023-03-16T22:18:56.223Z,64.40
2023-03-16T22:21:32.236Z,63.62
2023-03-16T22:23:59.868Z,64.06
2023-03-16T22:26:26.689Z,63.75
2023-03-16T22:28:55.996Z,64.66
2023-03-16T22:31:30.739Z,64.46
2023-03-16T22:33:57.442Z,64.39
2023-03-16T22:36:24.762Z,64.22
2023-03-16T22:39:01.260Z,63.80
2023-03-16T22:41:29.347Z,64.65
2023-03-16T22:43:56.316Z,64.46
2023-03-16T22:46:25.763Z,65.09
2023-03-16T22:48:53.898Z,65.61
2023-03-16T22:51:20.237Z,65.31
2023-03-16T22:53:47.009Z,64.81
2023-03-16T22:56:13.662Z,65.31
2023-03-16T22:58:46.846Z,65.18
2023-03-16T23:01:19.202Z,64.49
2023-03-16T23:03:47.558Z,64.83
2023-03-16T23:06:20.360Z,64.67
2023-03-16T23:08:47.647Z,64.46
2023-03-16T23:11:19.406Z,64.33
2023-03-16T23:13:46.418Z,64.43
2023-03-16T23:16:36.504Z,64.75
2023-03-16T23:19:09.840Z,64.52
2023-03-16T23:21:42.081Z,64.97
2023-03-16T23:24:08.689Z,64.50
2023-03-16T23:26:35.153Z,64.98
2023-03-16T23:29:01.549Z,65.55
2023-03-16T23:31:29.142Z,65.81
2023-03-16T23:33:55.714Z,65.77
2023-03-16T23:36:24.607Z,65.99
2023-03-16T23:38:51.351Z,66.17
2023-03-16T23:41:21.743Z,66.74
2023-03-16T23:43:50.673Z,66.81
2023-03-16T23:46:19.876Z,67.12
2023-03-16T23:48:49.015Z,67.83
2023-03-16T23:51:23.326Z,67.91
2023-03-16T23:53:49.814Z,67.01
2023-03-16T23:56:16.827Z,66.85
2023-03-16T23:58:43.670Z,67.06
